TimeCST,TemperatureF,Dew PointF,Humidity,Sea Level PressureIn,VisibilityMPH,Wind Direction,Wind SpeedMPH,Gust SpeedMPH,PrecipitationIn,Events,Conditions,WindDirDegrees,DateUTC
12:15 AM,6.8,1.4,79,30.02,8.0,WNW,28.8,33.4,N/A,,Overcast,300,2013-02-19 06:15:00
12:35 AM,6.8,-0.4,72,30.03,10.0,NW,21.9,31.1,N/A,,Overcast,310,2013-02-19 06:35:00
12:55 AM,6.8,-0.4,72,30.03,10.0,WNW,28.8,34.5,N/A,,Overcast,300,2013-02-19 06:55:00
1:15 AM,5.0,-0.4,78,30.05,10.0,WNW,24.2,31.1,N/A,,Overcast,300,2013-02-19 07:15:00
1:35 AM,3.2,1.4,92,30.05,5.0,WNW,23.0,31.1,N/A,,Overcast,300,2013-02-19 07:35:00
1:55 AM,3.2,-2.2,78,30.06,9.0,NW,24.2,31.1,N/A,,Overcast,310,2013-02-19 07:55:00
2:15 AM,3.2,-2.2,78,30.07,10.0,NW,23.0,29.9,N/A,,Overcast,310,2013-02-19 08:15:00
2:35 AM,3.2,-0.4,85,30.07,7.0,WNW,19.6,-,N/A,,Overcast,300,2013-02-19 08:35:00
2:55 AM,3.2,-5.8,66,30.08,10.0,WNW,20.7,33.4,N/A,,Overcast,300,2013-02-19 08:55:00
3:15 AM,1.4,-2.2,85,30.08,5.0,WNW,25.3,33.4,N/A,,Overcast,300,2013-02-19 09:15:00
3:35 AM,1.4,-4.0,78,30.08,10.0,WNW,28.8,34.5,N/A,,Overcast,300,2013-02-19 09:35:00
3:55 AM,1.4,-5.8,72,30.09,10.0,WNW,24.2,29.9,N/A,,Overcast,300,2013-02-19 09:55:00
4:15 AM,-0.4,-4.0,85,30.10,10.0,WNW,20.7,28.8,N/A,,Overcast,300,2013-02-19 10:15:00
4:35 AM,-2.2,-7.6,78,30.11,9.0,NW,20.7,28.8,N/A,,Overcast,310,2013-02-19 10:35:00
4:55 AM,-2.2,-9.4,71,30.13,10.0,NW,19.6,27.6,N/A,,Overcast,310,2013-02-19 10:55:00
5:15 AM,-5.8,-11.2,77,30.14,9.0,NW,17.3,21.9,N/A,,Mostly Cloudy,310,2013-02-19 11:15:00
5:55 AM,-5.8,-9.4,84,30.16,10.0,WNW,17.3,29.9,N/A,,Clear,300,2013-02-19 11:55:00
6:15 AM,-7.6,-14.8,71,30.17,10.0,NW,16.1,-,N/A,,Mostly Cloudy,310,2013-02-19 12:15:00
6:35 AM,-7.6,-13.0,77,30.18,10.0,WNW,12.7,-,N/A,,Mostly Cloudy,300,2013-02-19 12:35:00
6:55 AM,-7.6,-11.2,84,30.18,10.0,WNW,15.0,-,N/A,,Scattered Clouds,300,2013-02-19 12:55:00
7:15 AM,-7.6,-9.4,92,30.18,10.0,NW,17.3,23.0,N/A,,Clear,310,2013-02-19 13:15:00
7:35 AM,-9.4,-16.6,71,30.20,10.0,NW,11.5,-,N/A,,Scattered Clouds,310,2013-02-19 13:35:00
7:55 AM,-9.4,-11.2,92,30.20,10.0,NW,19.6,-,N/A,,Mostly Cloudy,310,2013-02-19 13:55:00
8:15 AM,-9.4,-13.0,84,30.21,9.0,NW,16.1,23.0,N/A,,Overcast,310,2013-02-19 14:15:00
8:35 AM,-9.4,-16.6,71,30.22,10.0,NW,16.1,-,N/A,,Mostly Cloudy,310,2013-02-19 14:35:00
8:55 AM,-9.4,-9999,N/A,30.23,10.0,WNW,18.4,-,N/A,,Mostly Cloudy,300,2013-02-19 14:55:00
9:35 AM,-7.6,-14.8,71,30.24,10.0,NW,19.6,-,N/A,,Partly Cloudy,310,2013-02-19 15:35:00
9:55 AM,-7.6,-11.2,84,30.24,10.0,NW,18.4,-,N/A,,Clear,310,2013-02-19 15:55:00
10:15 AM,-7.6,-14.8,71,30.27,10.0,WNW,17.3,21.9,N/A,,Clear,300,2013-02-19 16:15:00
10:35 AM,-7.6,-13.0,77,30.26,10.0,NW,17.3,21.9,N/A,,Clear,310,2013-02-19 16:35:00
10:55 AM,-7.6,-11.2,84,30.28,10.0,WNW,17.3,-,N/A,,Clear,290,2013-02-19 16:55:00
11:15 AM,-7.6,-11.2,84,30.28,10.0,WNW,18.4,-,N/A,,Clear,290,2013-02-19 17:15:00
11:35 AM,-5.8,-9999,N/A,30.28,10.0,WNW,16.1,-,N/A,,Clear,300,2013-02-19 17:35:00
12:15 PM,-5.8,-9.4,84,30.30,10.0,WNW,17.3,-,N/A,,Clear,290,2013-02-19 18:15:00
12:35 PM,-4.0,-11.2,71,30.29,10.0,NW,15.0,-,N/A,,Clear,310,2013-02-19 18:35:00
12:55 PM,-2.2,-7.6,78,30.29,10.0,WNW,16.1,-,N/A,,Clear,300,2013-02-19 18:55:00
1:15 PM,-2.2,-9.4,71,30.28,10.0,WNW,17.3,-,N/A,,Clear,300,2013-02-19 19:15:00
1:35 PM,-2.2,-7.6,78,30.29,10.0,WNW,19.6,-,N/A,,Clear,300,2013-02-19 19:35:00
1:55 PM,-0.4,-7.6,72,30.29,10.0,WNW,18.4,-,N/A,,Clear,290,2013-02-19 19:55:00
2:15 PM,-0.4,-7.6,72,30.28,10.0,WNW,19.6,-,N/A,,Clear,300,2013-02-19 20:15:00
2:35 PM,-0.4,-5.8,78,30.29,10.0,WNW,19.6,-,N/A,,Clear,300,2013-02-19 20:35:00
2:55 PM,-0.4,-5.8,78,30.30,10.0,WNW,17.3,-,N/A,,Clear,290,2013-02-19 20:55:00
3:15 PM,-0.4,-5.8,78,30.29,10.0,WNW,18.4,-,N/A,,Clear,290,2013-02-19 21:15:00
3:35 PM,-0.4,-5.8,78,30.30,10.0,WNW,18.4,-,N/A,,Clear,300,2013-02-19 21:35:00
3:55 PM,-0.4,-5.8,78,30.30,10.0,WNW,18.4,-,N/A,,Clear,300,2013-02-19 21:55:00
4:15 PM,-0.4,-5.8,78,30.30,10.0,NW,13.8,-,N/A,,Clear,310,2013-02-19 22:15:00
4:35 PM,1.4,-5.8,72,30.30,10.0,WNW,15.0,-,N/A,,Clear,300,2013-02-19 22:35:00
4:55 PM,-0.4,-5.8,78,30.30,10.0,NW,11.5,-,N/A,,Clear,320,2013-02-19 22:55:00
5:15 PM,-0.4,-7.6,72,30.31,10.0,NW,12.7,-,N/A,,Clear,310,2013-02-19 23:15:00
6:35 PM,-2.2,-9.4,71,30.31,10.0,NNW,8.1,-,N/A,,Clear,330,2013-02-20 00:35:00
6:55 PM,-2.2,-9.4,71,30.31,10.0,WNW,6.9,-,N/A,,Clear,300,2013-02-20 00:55:00
7:15 PM,-4.0,-7.6,85,30.31,10.0,NNW,9.2,-,N/A,,Clear,340,2013-02-20 01:15:00
7:35 PM,-4.0,-9.4,78,30.32,10.0,NW,9.2,-,N/A,,Clear,320,2013-02-20 01:35:00
7:55 PM,-5.8,-9.4,84,30.32,10.0,NW,5.8,-,N/A,,Clear,310,2013-02-20 01:55:00
8:15 PM,-5.8,-9999,N/A,30.32,10.0,NW,8.1,-,N/A,,Clear,320,2013-02-20 02:15:00
8:35 PM,-5.8,-9.4,84,30.33,10.0,NW,4.6,-,N/A,,Clear,310,2013-02-20 02:35:00
8:55 PM,-7.6,-11.2,84,30.33,10.0,NW,5.8,-,N/A,,Clear,320,2013-02-20 02:55:00
9:15 PM,-7.6,-11.2,84,30.34,10.0,NW,6.9,-,N/A,,Clear,310,2013-02-20 03:15:00
9:35 PM,-7.6,-11.2,84,30.35,10.0,NW,3.5,-,N/A,,Clear,310,2013-02-20 03:35:00
9:55 PM,-7.6,-14.8,71,30.35,10.0,NW,4.6,-,N/A,,Clear,320,2013-02-20 03:55:00
10:15 PM,-7.6,-9.4,92,30.34,10.0,North,5.8,-,N/A,,Clear,350,2013-02-20 04:15:00
10:35 PM,-7.6,-13.0,77,30.35,10.0,NW,4.6,-,N/A,,Clear,320,2013-02-20 04:35:00
10:55 PM,-9.4,-16.6,71,30.36,10.0,WNW,5.8,-,N/A,,Clear,300,2013-02-20 04:55:00
11:15 PM,-9.4,-9.4,100,30.37,10.0,NW,3.5,-,N/A,,Clear,320,2013-02-20 05:15:00
11:35 PM,-9.4,-18.4,65,30.37,10.0,Calm,Calm,-,N/A,,Clear,0,2013-02-20 05:35:00
11:55 PM,-9.4,-9.4,100,30.37,10.0,NNW,3.5,-,N/A,,Clear,340,2013-02-20 05:55:00